Whiteclay, Nebraska
Current Conditions -  °F | °C
As of 6:52 PM on Friday 24 Oct 2014 (Local Time) from KIEN Reporting Station
Clear Clear  
Wind Chill: 54°   Ceiling: Unl
Heat Index: 54°   Visibility: 10mi
Dew Point: 38°   Wind: 6mph
Humidity: 55%   Direction: 70°ENE
Pressure: 30.05"   Gusts: NA
Location:  43°N, 102.56°W
Report Text: KIEN 250052Z AUTO 07005KT 10SM CLR 12/03 A3005 RMK AO2 SLP171 T01220033
Loading
Personal Weather Stations






























Interactive Weather Map
Tropical Storm Tracking
New forecast layout! Learn more

10-Day Weather Forecast

Advertisements
Track Severe Weather on mobile